createdAt,value
2024-01-12T00:01:02.188Z,1.30
2024-01-12T00:03:30.329Z,1.92
2024-01-12T00:05:59.969Z,1.25
2024-01-12T00:08:29.975Z,0.70
2024-01-12T00:10:58.264Z,1.23
2024-01-12T00:13:26.602Z,1.23
2024-01-12T00:15:54.788Z,1.30
2024-01-12T00:18:23.151Z,1.38
2024-01-12T00:20:51.697Z,1.50
2024-01-12T00:23:21.273Z,1.20
2024-01-12T00:25:49.402Z,1.02
2024-01-12T00:28:17.762Z,0.95
2024-01-12T00:30:46.977Z,1.45
2024-01-12T00:33:15.476Z,1.13
2024-01-12T00:35:43.799Z,0.95
2024-01-12T00:38:12.091Z,1.00
2024-01-12T00:40:41.942Z,1.17
2024-01-12T00:43:10.165Z,1.10
2024-01-12T00:45:38.429Z,1.02
2024-01-12T00:48:08.036Z,1.10
2024-01-12T00:50:36.422Z,1.48
2024-01-12T00:53:04.816Z,1.10
2024-01-12T00:55:34.427Z,1.20
2024-01-12T00:58:04.065Z,1.25
2024-01-12T01:00:33.140Z,1.15
2024-01-12T01:03:03.403Z,1.30
2024-01-12T01:05:32.047Z,1.42
2024-01-12T01:08:00.448Z,1.13
2024-01-12T01:10:28.627Z,1.20
2024-01-12T01:12:56.918Z,1.67
2024-01-12T01:15:26.544Z,1.10
2024-01-12T01:17:54.906Z,1.58
2024-01-12T01:20:23.264Z,1.63
2024-01-12T01:22:51.490Z,1.33
2024-01-12T01:25:20.716Z,1.15
2024-01-12T01:27:49.044Z,1.40
2024-01-12T01:30:17.615Z,1.40
2024-01-12T01:32:49.279Z,1.25
2024-01-12T01:35:17.938Z,1.00
2024-01-12T01:37:46.191Z,1.60
2024-01-12T01:40:14.454Z,1.17
2024-01-12T01:42:42.663Z,0.98
2024-01-12T01:45:11.350Z,1.60
2024-01-12T01:47:39.851Z,1.83
2024-01-12T01:50:11.144Z,1.48
2024-01-12T01:52:40.013Z,1.38
2024-01-12T01:55:09.952Z,1.45
2024-01-12T01:57:38.481Z,1.20
2024-01-12T02:00:07.586Z,1.02
2024-01-12T02:02:35.874Z,1.40
2024-01-12T02:05:05.497Z,0.98
2024-01-12T02:07:35.898Z,1.15
2024-01-12T02:10:04.912Z,1.60
2024-01-12T02:12:33.170Z,1.15
2024-01-12T02:15:01.521Z,1.40
2024-01-12T02:17:29.934Z,1.38
2024-01-12T02:20:01.032Z,1.67
2024-01-12T02:22:31.773Z,1.55
2024-01-12T02:25:00.180Z,1.05
2024-01-12T02:27:28.406Z,1.33
2024-01-12T02:29:58.571Z,1.63
2024-01-12T02:32:27.169Z,1.25
2024-01-12T02:34:55.572Z,1.15
2024-01-12T02:37:23.759Z,1.17
2024-01-12T02:39:53.284Z,2.28
2024-01-12T02:42:21.573Z,1.02
2024-01-12T02:44:49.930Z,1.15
2024-01-12T02:47:18.217Z,1.02
2024-01-12T02:49:46.525Z,1.10
2024-01-12T02:52:14.855Z,1.23
2024-01-12T02:54:45.139Z,1.05
2024-01-12T02:57:16.245Z,1.40
2024-01-12T02:59:44.550Z,1.50
2024-01-12T03:02:12.738Z,1.38
2024-01-12T03:04:41.012Z,1.30
2024-01-12T03:07:09.170Z,1.23
2024-01-12T03:09:37.309Z,0.93
2024-01-12T03:12:06.554Z,1.35
2024-01-12T03:14:36.142Z,1.15
2024-01-12T03:17:04.393Z,1.40
2024-01-12T03:19:32.555Z,1.00
2024-01-12T03:22:00.821Z,0.88
2024-01-12T03:24:29.010Z,1.45
2024-01-12T03:26:57.361Z,1.77
2024-01-12T03:29:25.838Z,2.10
2024-01-12T03:31:55.444Z,2.15
2024-01-12T03:34:23.779Z,1.83
2024-01-12T03:36:52.011Z,1.00
2024-01-12T03:39:20.389Z,1.38
2024-01-12T03:41:48.741Z,1.40
2024-01-12T03:44:17.014Z,1.10
2024-01-12T03:46:45.242Z,1.30
2024-01-12T03:49:14.954Z,0.70
2024-01-12T03:51:45.175Z,0.80
2024-01-12T03:54:13.531Z,1.30
2024-01-12T03:56:41.804Z,1.35
2024-01-12T03:59:09.915Z,1.17
2024-01-12T04:01:38.157Z,1.20
2024-01-12T04:04:07.567Z,1.85
2024-01-12T04:06:37.274Z,1.98
2024-01-12T04:09:05.729Z,1.48
2024-01-12T04:11:34.306Z,1.20
2024-01-12T04:14:02.436Z,1.48
2024-01-12T04:16:30.604Z,1.75
2024-01-12T04:18:59.427Z,1.45
2024-01-12T04:21:27.781Z,1.35
2024-01-12T04:23:58.492Z,1.50
2024-01-12T04:26:27.010Z,1.33
2024-01-12T04:28:55.346Z,1.40
2024-01-12T04:31:23.569Z,1.40
2024-01-12T04:33:51.993Z,1.10
2024-01-12T04:36:24.029Z,0.73
2024-01-12T04:38:52.389Z,0.90
2024-01-12T04:41:22.120Z,1.20
2024-01-12T04:43:50.561Z,1.42
2024-01-12T04:46:19.026Z,1.75
2024-01-12T04:48:47.206Z,1.50
2024-01-12T04:51:15.469Z,1.45
2024-01-12T04:53:43.748Z,0.90
2024-01-12T04:56:11.920Z,1.15
2024-01-12T04:58:41.630Z,0.80
2024-01-12T05:01:10.026Z,1.38
2024-01-12T05:03:38.264Z,1.85
2024-01-12T05:06:07.349Z,0.90
2024-01-12T05:08:35.911Z,1.17
2024-01-12T05:11:04.415Z,1.40
2024-01-12T05:13:32.647Z,1.27
2024-01-12T05:16:02.313Z,1.23
2024-01-12T05:18:30.647Z,1.08
2024-01-12T05:20:58.987Z,1.00
2024-01-12T05:23:27.282Z,1.20
2024-01-12T05:25:55.490Z,1.10
2024-01-12T05:28:23.695Z,1.23
2024-01-12T05:30:52.069Z,0.90
2024-01-12T05:33:21.840Z,1.40
2024-01-12T05:35:50.117Z,0.88
2024-01-12T05:38:18.348Z,1.15
2024-01-12T05:40:46.582Z,1.20
2024-01-12T05:43:15.788Z,1.25
2024-01-12T05:45:44.149Z,0.95
2024-01-12T05:48:12.958Z,0.80
2024-01-12T05:50:42.894Z,1.30
2024-01-12T05:53:11.129Z,0.93
2024-01-12T05:55:39.381Z,0.88
2024-01-12T05:58:07.881Z,1.40
2024-01-12T06:00:36.077Z,1.50
2024-01-12T06:03:04.345Z,0.90
2024-01-12T06:05:33.069Z,1.35
2024-01-12T06:08:02.775Z,0.73
2024-01-12T06:10:30.952Z,0.60
2024-01-12T06:12:59.084Z,0.82
2024-01-12T06:15:27.381Z,1.17
2024-01-12T06:17:55.708Z,1.05
2024-01-12T06:20:23.991Z,1.10
2024-01-12T06:22:52.271Z,1.15
2024-01-12T06:25:21.854Z,0.85
2024-01-12T06:27:50.608Z,1.02
2024-01-12T06:30:19.381Z,1.23
2024-01-12T06:32:48.304Z,1.40
2024-01-12T06:35:16.532Z,1.27
2024-01-12T06:37:44.845Z,1.48
2024-01-12T06:40:13.917Z,0.93
2024-01-12T06:42:44.029Z,1.00
2024-01-12T06:45:14.163Z,1.40
2024-01-12T06:47:42.480Z,1.50
2024-01-12T06:50:11.382Z,1.58
2024-01-12T06:52:39.565Z,1.83
2024-01-12T06:55:08.356Z,1.70
2024-01-12T06:57:36.671Z,1.20
2024-01-12T07:00:08.411Z,1.25
2024-01-12T07:02:37.055Z,2.55
2024-01-12T07:05:05.664Z,1.58
2024-01-12T07:07:34.113Z,1.65
2024-01-12T07:10:02.286Z,1.30
2024-01-12T07:12:30.516Z,0.85
2024-01-12T07:14:58.962Z,1.30
2024-01-12T07:17:28.682Z,1.20
2024-01-12T07:19:57.093Z,1.27
2024-01-12T07:22:25.336Z,1.60
2024-01-12T07:24:53.538Z,1.40
2024-01-12T07:27:21.662Z,1.83
2024-01-12T07:29:49.944Z,1.77
2024-01-12T07:32:18.132Z,1.50
2024-01-12T07:34:47.805Z,2.03
2024-01-12T07:37:16.145Z,1.35
2024-01-12T07:39:44.855Z,2.17
2024-01-12T07:42:13.056Z,4.18
2024-01-12T07:44:41.379Z,2.00
2024-01-12T07:47:09.655Z,1.75
2024-01-12T07:49:37.999Z,0.85
2024-01-12T07:52:09.344Z,1.20
2024-01-12T07:54:38.628Z,0.88
2024-01-12T07:57:07.014Z,1.10
2024-01-12T07:59:35.290Z,1.35
2024-01-12T08:02:03.713Z,1.27
2024-01-12T08:04:32.369Z,1.58
2024-01-12T08:07:02.484Z,1.20
2024-01-12T08:09:32.348Z,1.45
2024-01-12T08:12:00.655Z,1.38
2024-01-12T08:14:28.834Z,4.32
2024-01-12T08:16:57.020Z,1.88
2024-01-12T08:19:25.193Z,1.02
2024-01-12T08:21:56.610Z,1.38
2024-01-12T08:24:25.451Z,1.35
2024-01-12T08:26:55.220Z,1.02
2024-01-12T08:29:23.442Z,1.60
2024-01-12T08:31:52.883Z,1.20
2024-01-12T08:34:21.533Z,1.35
2024-01-12T08:36:49.739Z,1.15
2024-01-12T08:39:18.662Z,0.95
2024-01-12T08:41:46.875Z,1.33
2024-01-12T08:44:16.977Z,1.80
2024-01-12T08:46:45.168Z,1.73
2024-01-12T08:49:13.975Z,1.50
2024-01-12T08:51:42.444Z,1.48
2024-01-12T08:54:10.722Z,1.30
2024-01-12T08:56:39.212Z,1.08
2024-01-12T08:59:07.402Z,2.33
2024-01-12T09:01:37.475Z,1.67
2024-01-12T09:04:06.167Z,1.83
2024-01-12T09:06:34.532Z,1.52
2024-01-12T09:09:03.074Z,2.17
2024-01-12T09:11:31.280Z,4.50
2024-01-12T09:13:59.477Z,2.10
2024-01-12T09:16:27.646Z,2.15
2024-01-12T09:18:57.620Z,2.03
2024-01-12T09:21:26.712Z,2.53
2024-01-12T09:23:54.986Z,2.10
2024-01-12T09:26:24.539Z,2.03
2024-01-12T09:28:52.744Z,1.95
2024-01-12T09:31:21.162Z,2.08
2024-01-12T09:33:49.585Z,1.83
2024-01-12T09:36:19.304Z,5.47
2024-01-12T09:38:47.625Z,3.22
2024-01-12T09:41:17.828Z,3.67
2024-01-12T09:43:47.504Z,3.47
2024-01-12T09:46:21.118Z,4.07
2024-01-12T09:48:50.809Z,4.32
2024-01-12T09:51:22.238Z,4.03
2024-01-12T09:53:50.716Z,5.72
2024-01-12T09:56:23.204Z,5.20
2024-01-12T09:58:54.702Z,5.45
2024-01-12T10:01:23.175Z,5.57
2024-01-12T10:03:52.837Z,6.13
2024-01-12T10:08:50.870Z,6.70
2024-01-12T10:11:19.941Z,7.22
2024-01-12T10:13:49.582Z,7.70
2024-01-12T10:16:18.667Z,8.13
2024-01-12T10:18:46.959Z,9.57
2024-01-12T10:21:15.724Z,8.73
2024-01-12T10:23:45.397Z,10.13
2024-01-12T10:26:17.303Z,10.52
2024-01-12T10:28:45.846Z,11.25
2024-01-12T10:31:14.759Z,10.13
2024-01-12T10:33:44.613Z,11.20
2024-01-12T10:36:17.564Z,11.88
2024-01-12T10:38:48.768Z,11.95
2024-01-12T10:41:22.294Z,11.75
2024-01-12T10:43:55.028Z,13.07
2024-01-12T10:46:31.938Z,14.43
2024-01-12T10:49:07.976Z,13.80
2024-01-12T10:51:39.951Z,15.05
2024-01-12T10:54:13.602Z,13.65
2024-01-12T10:56:43.859Z,14.07
2024-01-12T10:59:13.107Z,16.30
2024-01-12T11:01:42.784Z,15.07
2024-01-12T11:04:13.093Z,15.10
2024-01-12T11:06:45.218Z,15.77
2024-01-12T11:09:17.897Z,15.00
2024-01-12T11:11:51.872Z,15.57
2024-01-12T11:14:21.551Z,16.00
2024-01-12T11:16:49.991Z,14.95
2024-01-12T11:19:18.429Z,14.63
2024-01-12T11:21:46.871Z,14.82
2024-01-12T11:24:16.536Z,14.25
2024-01-12T11:26:44.986Z,14.82
2024-01-12T11:29:17.571Z,14.60
2024-01-12T11:31:53.408Z,16.02
2024-01-12T11:34:21.719Z,17.15
2024-01-12T11:36:59.110Z,16.65
2024-01-12T11:39:28.770Z,16.15
2024-01-12T11:41:57.729Z,16.40
2024-01-12T11:44:27.590Z,15.82
2024-01-12T11:46:55.926Z,16.02
2024-01-12T11:49:24.621Z,15.20
2024-01-12T11:51:53.082Z,15.23
2024-01-12T11:54:22.194Z,15.50
2024-01-12T11:56:52.038Z,15.60
2024-01-12T11:59:20.246Z,15.52
2024-01-12T12:01:48.401Z,15.18
2024-01-12T12:04:18.403Z,14.73
2024-01-12T12:06:48.064Z,15.40
2024-01-12T12:09:16.762Z,14.63
2024-01-12T12:11:45.492Z,14.95
2024-01-12T12:14:15.089Z,14.00
2024-01-12T12:16:43.381Z,14.07
2024-01-12T12:19:12.417Z,13.23
2024-01-12T12:21:40.740Z,13.90
2024-01-12T12:24:09.191Z,13.18
2024-01-12T12:26:38.085Z,13.18
2024-01-12T12:29:07.456Z,12.55
2024-01-12T12:31:41.303Z,13.13
2024-01-12T12:34:09.913Z,13.32
2024-01-12T12:36:38.492Z,12.60
2024-01-12T12:39:11.194Z,12.40
2024-01-12T12:41:39.477Z,14.55
2024-01-12T12:44:07.802Z,14.07
2024-01-12T12:46:37.460Z,11.05
2024-01-12T12:49:06.271Z,11.40
2024-01-12T12:51:34.717Z,10.48
2024-01-12T12:54:03.036Z,13.00
2024-01-12T12:56:31.488Z,11.45
2024-01-12T12:58:59.644Z,13.15
2024-01-12T13:01:27.946Z,11.32
2024-01-12T13:03:57.975Z,11.65
2024-01-12T13:06:26.360Z,11.43
2024-01-12T13:08:54.657Z,11.43
2024-01-12T13:11:22.915Z,14.02
2024-01-12T13:13:51.063Z,13.13
2024-01-12T13:16:19.339Z,12.70
2024-01-12T13:18:47.782Z,10.93
2024-01-12T13:21:18.588Z,10.00
2024-01-12T13:23:47.275Z,12.23
2024-01-12T13:26:15.564Z,10.30
2024-01-12T13:28:43.767Z,11.27
2024-01-12T13:31:12.057Z,9.90
2024-01-12T13:33:40.536Z,9.60
2024-01-12T13:36:10.199Z,14.15
2024-01-12T13:38:39.967Z,11.05
2024-01-12T13:41:10.361Z,10.80
2024-01-12T13:43:38.729Z,11.15
2024-01-12T13:46:07.034Z,11.15
2024-01-12T13:48:35.398Z,10.20
2024-01-12T13:51:04.668Z,10.75
2024-01-12T13:53:33.374Z,10.93
2024-01-12T13:56:04.654Z,9.88
2024-01-12T13:58:32.918Z,9.77
2024-01-12T14:01:01.304Z,10.13
2024-01-12T14:03:29.868Z,9.68
2024-01-12T14:05:58.303Z,9.65
2024-01-12T14:08:28.484Z,9.00
2024-01-12T14:10:57.145Z,9.73
2024-01-12T14:13:26.850Z,8.70
2024-01-12T14:15:55.136Z,8.88
2024-01-12T14:18:23.742Z,8.32
2024-01-12T14:20:54.224Z,7.78
2024-01-12T14:23:22.895Z,8.47
2024-01-12T14:25:52.061Z,8.77
2024-01-12T14:28:28.684Z,7.65
2024-01-12T14:31:04.585Z,10.60
2024-01-12T14:33:35.545Z,8.02
2024-01-12T14:36:04.909Z,8.05
2024-01-12T14:38:33.460Z,7.68
2024-01-12T14:41:01.664Z,6.63
2024-01-12T14:43:30.018Z,6.38
2024-01-12T14:45:58.984Z,6.88
2024-01-12T14:48:28.840Z,6.90
2024-01-12T14:50:57.233Z,6.18
2024-01-12T14:53:25.478Z,5.90
2024-01-12T14:55:53.780Z,7.05
2024-01-12T14:58:22.323Z,6.72
2024-01-12T15:00:50.744Z,6.95
2024-01-12T15:03:19.304Z,6.80
2024-01-12T15:05:49.068Z,6.22
2024-01-12T15:08:19.119Z,5.95
2024-01-12T15:10:48.994Z,5.38
2024-01-12T15:13:17.915Z,7.15
2024-01-12T15:15:47.057Z,6.07
2024-01-12T15:18:15.655Z,6.25
2024-01-12T15:20:44.628Z,5.55
2024-01-12T15:23:14.268Z,5.97
2024-01-12T15:25:42.478Z,6.55
2024-01-12T15:28:10.607Z,5.80
2024-01-12T15:30:39.078Z,5.90
2024-01-12T15:33:07.727Z,6.18
2024-01-12T15:35:36.121Z,7.32
2024-01-12T15:38:04.287Z,8.43
2024-01-12T15:40:33.924Z,7.18
2024-01-12T15:43:02.579Z,7.38
2024-01-12T15:45:30.817Z,7.70
2024-01-12T15:47:59.197Z,6.97
2024-01-12T15:50:29.593Z,7.35
2024-01-12T15:52:58.529Z,6.32
2024-01-12T15:55:26.784Z,6.18
2024-01-12T15:57:56.405Z,6.20
2024-01-12T16:00:24.625Z,6.03
2024-01-12T16:02:52.889Z,6.63
2024-01-12T16:05:21.578Z,6.30
2024-01-12T16:07:49.693Z,7.13
2024-01-12T16:10:18.008Z,6.93
2024-01-12T16:12:46.434Z,6.55
2024-01-12T16:15:16.586Z,7.93
2024-01-12T16:17:44.935Z,7.03
2024-01-12T16:20:13.829Z,6.47
2024-01-12T16:22:42.432Z,5.55
2024-01-12T16:25:11.246Z,7.43
2024-01-12T16:27:39.532Z,6.07
2024-01-12T16:30:09.236Z,6.32
2024-01-12T16:32:39.104Z,7.13
2024-01-12T16:35:08.462Z,6.53
2024-01-12T16:37:37.002Z,6.07
2024-01-12T16:40:06.036Z,6.85
2024-01-12T16:42:34.274Z,5.95
2024-01-12T16:45:04.122Z,6.88
2024-01-12T16:47:32.595Z,6.95
2024-01-12T16:50:02.462Z,6.93
2024-01-12T16:52:31.339Z,6.03
2024-01-12T16:55:04.219Z,5.70
2024-01-12T16:57:32.413Z,5.90
2024-01-12T17:00:00.630Z,5.45
2024-01-12T17:02:28.983Z,5.95
2024-01-12T17:04:57.332Z,5.03
2024-01-12T17:07:27.115Z,6.30
2024-01-12T17:09:55.359Z,6.18
2024-01-12T17:12:23.689Z,6.97
2024-01-12T17:14:51.913Z,6.85
2024-01-12T17:17:26.313Z,8.60
2024-01-12T17:19:59.225Z,8.48
2024-01-12T17:22:29.090Z,8.30
2024-01-12T17:24:57.339Z,8.50
2024-01-12T17:27:28.218Z,9.18
2024-01-12T17:29:57.216Z,8.38
2024-01-12T17:32:27.883Z,9.57
2024-01-12T17:34:56.548Z,8.88
2024-01-12T17:37:24.914Z,9.85
2024-01-12T17:39:55.765Z,10.25
2024-01-12T17:42:24.538Z,11.43
2024-01-12T17:44:52.867Z,11.13
2024-01-12T17:47:22.120Z,12.20
2024-01-12T17:49:52.277Z,12.45
2024-01-12T17:52:22.250Z,11.85
2024-01-12T17:54:50.605Z,18.20
2024-01-12T17:57:20.709Z,14.90
2024-01-12T17:59:49.126Z,14.23
2024-01-12T18:02:19.930Z,14.50
2024-01-12T18:04:49.738Z,15.05
2024-01-12T18:07:20.810Z,15.27
2024-01-12T18:09:48.943Z,15.02
2024-01-12T18:12:17.245Z,14.77
2024-01-12T18:14:46.945Z,15.50
2024-01-12T18:17:15.204Z,15.50
2024-01-12T18:19:43.451Z,15.95
2024-01-12T18:22:11.871Z,16.30
2024-01-12T18:24:42.647Z,16.70
2024-01-12T18:27:12.995Z,17.08
2024-01-12T18:29:41.334Z,17.17
2024-01-12T18:32:11.974Z,17.20
2024-01-12T18:34:40.447Z,17.08
2024-01-12T18:37:08.766Z,17.48
2024-01-12T18:39:37.052Z,15.82
2024-01-12T18:42:05.672Z,15.95
2024-01-12T18:44:33.969Z,15.27
2024-01-12T18:47:02.347Z,14.90
2024-01-12T18:49:31.955Z,14.25
2024-01-12T18:52:00.531Z,15.20
2024-01-12T18:54:28.732Z,14.75
2024-01-12T18:56:56.984Z,13.82
2024-01-12T18:59:25.273Z,14.02
2024-01-12T19:01:55.681Z,13.48
2024-01-12T19:04:24.288Z,14.23
2024-01-12T19:06:53.851Z,13.85
2024-01-12T19:09:22.210Z,13.77
2024-01-12T19:11:50.480Z,14.02
2024-01-12T19:14:18.715Z,12.95
2024-01-12T19:16:47.191Z,12.85
2024-01-12T19:19:15.476Z,13.57
2024-01-12T19:21:44.528Z,14.00
2024-01-12T19:24:15.793Z,14.57
2024-01-12T19:26:45.634Z,14.43
2024-01-12T19:29:14.825Z,14.63
2024-01-12T19:31:42.989Z,13.00
2024-01-12T19:34:11.517Z,14.15
2024-01-12T19:36:42.151Z,13.13
2024-01-12T19:39:11.281Z,14.25
2024-01-12T19:41:40.896Z,15.02
2024-01-12T19:44:09.176Z,12.95
2024-01-12T19:46:38.647Z,14.43
2024-01-12T19:49:07.675Z,13.73
2024-01-12T19:51:35.921Z,15.05
2024-01-12T19:54:04.326Z,13.32
2024-01-12T19:56:32.584Z,14.45
2024-01-12T19:59:06.512Z,13.07
2024-01-12T20:01:35.331Z,13.40
2024-01-12T20:04:04.666Z,13.02
2024-01-12T20:06:33.106Z,13.50
2024-01-12T20:09:01.682Z,14.80
2024-01-12T20:11:29.947Z,14.40
2024-01-12T20:13:58.438Z,14.27
2024-01-12T20:16:30.355Z,14.98
2024-01-12T20:19:00.221Z,15.90
2024-01-12T20:21:28.871Z,13.27
2024-01-12T20:23:57.193Z,14.45
2024-01-12T20:26:25.602Z,14.05
2024-01-12T20:28:53.961Z,13.68
2024-01-12T20:31:22.213Z,14.98
2024-01-12T20:33:51.977Z,14.90
2024-01-12T20:36:20.488Z,16.23
2024-01-12T20:38:50.627Z,16.70
2024-01-12T20:41:19.511Z,18.13
2024-01-12T20:43:47.804Z,16.90
2024-01-12T20:46:16.041Z,17.63
2024-01-12T20:48:44.462Z,17.55
2024-01-12T20:51:14.576Z,15.82
2024-01-12T20:53:42.793Z,17.58
2024-01-12T20:56:11.396Z,17.65
2024-01-12T20:58:39.693Z,18.05
2024-01-12T21:01:07.916Z,17.42
2024-01-12T21:03:36.207Z,17.20
2024-01-12T21:06:04.989Z,18.10
2024-01-12T21:08:34.745Z,16.58
2024-01-12T21:11:03.010Z,18.00
2024-01-12T21:13:31.296Z,16.52
2024-01-12T21:15:59.791Z,16.65
2024-01-12T21:18:28.299Z,17.38
2024-01-12T21:20:56.605Z,16.25
2024-01-12T21:23:24.827Z,17.77
2024-01-12T21:25:54.425Z,18.38
2024-01-12T21:28:23.803Z,17.92
2024-01-12T21:30:52.172Z,18.30
2024-01-12T21:33:20.981Z,17.67
2024-01-12T21:35:49.500Z,18.23
2024-01-12T21:38:20.064Z,18.63
2024-01-12T21:40:49.500Z,18.25
2024-01-12T21:43:19.216Z,20.10
2024-01-12T21:45:47.435Z,18.27
2024-01-12T21:48:15.761Z,18.17
2024-01-12T21:50:44.026Z,17.73
2024-01-12T21:53:12.384Z,21.33
2024-01-12T21:55:42.014Z,17.83
2024-01-12T21:58:10.324Z,18.00
2024-01-12T22:00:39.998Z,17.80
2024-01-12T22:03:08.288Z,17.52
2024-01-12T22:05:36.567Z,17.80
2024-01-12T22:08:06.105Z,18.63
2024-01-12T22:10:34.424Z,17.95
2024-01-12T22:13:02.608Z,18.25
2024-01-12T22:15:30.868Z,17.02
2024-01-12T22:18:00.683Z,17.95
2024-01-12T22:20:29.138Z,17.58
2024-01-12T22:22:57.337Z,18.73
2024-01-12T22:25:25.578Z,16.88
2024-01-12T22:27:53.742Z,17.73
2024-01-12T22:30:22.333Z,19.23
2024-01-12T22:32:50.698Z,17.80
2024-01-12T22:35:20.357Z,17.42
2024-01-12T22:37:48.534Z,17.95
2024-01-12T22:40:16.976Z,18.65
2024-01-12T22:42:45.206Z,18.50
2024-01-12T22:45:13.563Z,18.08
2024-01-12T22:47:42.052Z,18.17
2024-01-12T22:50:10.788Z,16.55
2024-01-12T22:52:41.118Z,17.10
2024-01-12T22:55:10.706Z,16.20
2024-01-12T22:57:38.942Z,17.00
2024-01-12T23:00:26.262Z,17.02
2024-01-12T23:02:57.006Z,15.68
2024-01-12T23:05:26.298Z,16.35
2024-01-12T23:07:56.190Z,16.30
2024-01-12T23:10:24.431Z,16.42
2024-01-12T23:12:52.746Z,14.77
2024-01-12T23:15:21.197Z,16.20
2024-01-12T23:17:49.530Z,16.48
2024-01-12T23:20:20.342Z,17.35
2024-01-12T23:22:49.252Z,17.25
2024-01-12T23:25:19.200Z,13.75
2024-01-12T23:27:47.320Z,15.27
2024-01-12T23:30:15.881Z,14.50
2024-01-12T23:32:44.633Z,14.40
2024-01-12T23:35:13.246Z,13.70
2024-01-12T23:37:41.681Z,12.88
2024-01-12T23:40:11.469Z,10.88
2024-01-12T23:42:41.203Z,11.82
2024-01-12T23:45:10.181Z,10.93
2024-01-12T23:47:38.576Z,12.07
2024-01-12T23:50:07.848Z,12.00
2024-01-12T23:52:36.218Z,13.35
2024-01-12T23:55:04.636Z,11.73
2024-01-12T23:57:32.823Z,11.55
